sensor_id;sensor_type;location;lat;lon;timestamp;temperature;humidity
30983;DHT22;17660;52.578;13.288;2023-03-23T00:00:52;13.40;91.20
30983;DHT22;17660;52.578;13.288;2023-03-23T00:03:19;13.40;91.20
30983;DHT22;17660;52.578;13.288;2023-03-23T00:05:46;13.30;91.40
30983;DHT22;17660;52.578;13.288;2023-03-23T00:08:19;13.30;91.50
30983;DHT22;17660;52.578;13.288;2023-03-23T00:10:48;13.20;91.60
30983;DHT22;17660;52.578;13.288;2023-03-23T00:13:14;13.20;91.80
30983;DHT22;17660;52.578;13.288;2023-03-23T00:15:45;13.20;91.80
30983;DHT22;17660;52.578;13.288;2023-03-23T00:18:10;13.20;91.90
30983;DHT22;17660;52.578;13.288;2023-03-23T00:20:47;13.20;91.90
30983;DHT22;17660;52.578;13.288;2023-03-23T00:23:15;13.20;91.90
30983;DHT22;17660;52.578;13.288;2023-03-23T00:25:47;13.20;91.90
30983;DHT22;17660;52.578;13.288;2023-03-23T00:28:13;13.10;92.00
30983;DHT22;17660;52.578;13.288;2023-03-23T00:30:40;13.10;92.10
30983;DHT22;17660;52.578;13.288;2023-03-23T00:33:07;13.10;92.20
30983;DHT22;17660;52.578;13.288;2023-03-23T00:35:33;13.10;92.20
30983;DHT22;17660;52.578;13.288;2023-03-23T00:38:01;13.10;92.30
30983;DHT22;17660;52.578;13.288;2023-03-23T00:40:27;13.00;92.40
30983;DHT22;17660;52.578;13.288;2023-03-23T00:42:53;13.00;92.50
30983;DHT22;17660;52.578;13.288;2023-03-23T00:45:18;13.00;92.60
30983;DHT22;17660;52.578;13.288;2023-03-23T00:47:44;13.00;92.60
30983;DHT22;17660;52.578;13.288;2023-03-23T00:50:12;13.00;92.80
30983;DHT22;17660;52.578;13.288;2023-03-23T00:52:39;12.90;92.90
30983;DHT22;17660;52.578;13.288;2023-03-23T00:55:06;12.90;93.00
30983;DHT22;17660;52.578;13.288;2023-03-23T00:57:31;12.80;93.10
30983;DHT22;17660;52.578;13.288;2023-03-23T00:59:57;12.80;93.20
30983;DHT22;17660;52.578;13.288;2023-03-23T01:02:23;12.80;93.20
30983;DHT22;17660;52.578;13.288;2023-03-23T01:04:50;12.70;93.30
30983;DHT22;17660;52.578;13.288;2023-03-23T01:07:18;12.70;93.40
30983;DHT22;17660;52.578;13.288;2023-03-23T01:09:43;12.70;93.50
30983;DHT22;17660;52.578;13.288;2023-03-23T01:12:10;12.70;93.60
30983;DHT22;17660;52.578;13.288;2023-03-23T01:14:36;12.60;93.60
30983;DHT22;17660;52.578;13.288;2023-03-23T01:17:02;12.60;93.80
30983;DHT22;17660;52.578;13.288;2023-03-23T01:19:28;12.50;93.80
30983;DHT22;17660;52.578;13.288;2023-03-23T01:21:53;12.50;93.90
30983;DHT22;17660;52.578;13.288;2023-03-23T01:24:19;12.50;93.90
30983;DHT22;17660;52.578;13.288;2023-03-23T01:26:45;12.50;94.10
30983;DHT22;17660;52.578;13.288;2023-03-23T01:29:10;12.50;94.10
30983;DHT22;17660;52.578;13.288;2023-03-23T01:31:36;12.40;94.20
30983;DHT22;17660;52.578;13.288;2023-03-23T01:34:02;12.40;94.30
30983;DHT22;17660;52.578;13.288;2023-03-23T01:36:29;12.40;94.40
30983;DHT22;17660;52.578;13.288;2023-03-23T01:38:58;12.40;94.50
30983;DHT22;17660;52.578;13.288;2023-03-23T01:41:24;12.40;94.60
30983;DHT22;17660;52.578;13.288;2023-03-23T01:43:53;12.40;94.60
30983;DHT22;17660;52.578;13.288;2023-03-23T01:46:19;12.40;94.70
30983;DHT22;17660;52.578;13.288;2023-03-23T01:48:47;12.40;94.70
30983;DHT22;17660;52.578;13.288;2023-03-23T01:51:16;12.40;94.70
30983;DHT22;17660;52.578;13.288;2023-03-23T01:53:46;12.50;94.70
30983;DHT22;17660;52.578;13.288;2023-03-23T01:56:14;12.50;94.70
30983;DHT22;17660;52.578;13.288;2023-03-23T01:58:41;12.50;94.60
30983;DHT22;17660;52.578;13.288;2023-03-23T02:01:09;12.50;94.70
30983;DHT22;17660;52.578;13.288;2023-03-23T02:03:39;12.50;94.70
30983;DHT22;17660;52.578;13.288;2023-03-23T02:06:06;12.50;94.70
30983;DHT22;17660;52.578;13.288;2023-03-23T02:08:32;12.40;94.90
30983;DHT22;17660;52.578;13.288;2023-03-23T02:10:58;12.50;94.90
30983;DHT22;17660;52.578;13.288;2023-03-23T02:13:24;12.50;94.90
30983;DHT22;17660;52.578;13.288;2023-03-23T02:33:58;12.80;94.70
30983;DHT22;17660;52.578;13.288;2023-03-23T02:36:28;12.80;94.60
30983;DHT22;17660;52.578;13.288;2023-03-23T02:41:37;12.80;94.70
30983;DHT22;17660;52.578;13.288;2023-03-23T02:44:04;12.80;94.60
30983;DHT22;17660;52.578;13.288;2023-03-23T02:46:31;12.80;94.70
30983;DHT22;17660;52.578;13.288;2023-03-23T02:48:57;12.90;95.00
30983;DHT22;17660;52.578;13.288;2023-03-23T02:51:24;12.90;95.40
30983;DHT22;17660;52.578;13.288;2023-03-23T02:53:51;12.80;95.60
30983;DHT22;17660;52.578;13.288;2023-03-23T02:56:17;12.80;95.90
30983;DHT22;17660;52.578;13.288;2023-03-23T02:58:44;12.80;96.20
30983;DHT22;17660;52.578;13.288;2023-03-23T03:03:41;12.70;96.30
30983;DHT22;17660;52.578;13.288;2023-03-23T03:11:08;12.80;96.50
30983;DHT22;17660;52.578;13.288;2023-03-23T03:19:37;12.80;96.40
30983;DHT22;17660;52.578;13.288;2023-03-23T03:21:37;12.80;96.50
30983;DHT22;17660;52.578;13.288;2023-03-23T03:24:04;12.80;96.40
30983;DHT22;17660;52.578;13.288;2023-03-23T03:26:33;12.80;96.30
30983;DHT22;17660;52.578;13.288;2023-03-23T03:29:00;12.90;96.40
30983;DHT22;17660;52.578;13.288;2023-03-23T03:31:28;12.90;96.40
30983;DHT22;17660;52.578;13.288;2023-03-23T03:33:54;12.90;96.40
30983;DHT22;17660;52.578;13.288;2023-03-23T03:36:22;13.00;96.70
30983;DHT22;17660;52.578;13.288;2023-03-23T03:38:48;13.00;97.20
30983;DHT22;17660;52.578;13.288;2023-03-23T03:41:15;12.90;97.40
30983;DHT22;17660;52.578;13.288;2023-03-23T03:43:40;12.90;98.10
30983;DHT22;17660;52.578;13.288;2023-03-23T03:46:06;12.90;98.10
30983;DHT22;17660;52.578;13.288;2023-03-23T03:48:32;12.80;98.30
30983;DHT22;17660;52.578;13.288;2023-03-23T03:50:58;12.80;98.50
30983;DHT22;17660;52.578;13.288;2023-03-23T03:53:28;12.80;98.60
30983;DHT22;17660;52.578;13.288;2023-03-23T03:55:54;12.80;99.30
30983;DHT22;17660;52.578;13.288;2023-03-23T03:58:27;12.80;99.80
30983;DHT22;17660;52.578;13.288;2023-03-23T04:00:57;12.80;99.50
30983;DHT22;17660;52.578;13.288;2023-03-23T04:03:23;12.80;99.20
30983;DHT22;17660;52.578;13.288;2023-03-23T04:05:49;12.80;99.20
30983;DHT22;17660;52.578;13.288;2023-03-23T04:08:14;12.80;99.10
30983;DHT22;17660;52.578;13.288;2023-03-23T04:10:40;12.80;99.50
30983;DHT22;17660;52.578;13.288;2023-03-23T04:13:05;12.80;99.70
30983;DHT22;17660;52.578;13.288;2023-03-23T04:15:31;12.70;99.90
30983;DHT22;17660;52.578;13.288;2023-03-23T04:17:57;12.70;99.90
30983;DHT22;17660;52.578;13.288;2023-03-23T04:20:23;12.70;99.90
30983;DHT22;17660;52.578;13.288;2023-03-23T04:22:49;12.70;99.90
30983;DHT22;17660;52.578;13.288;2023-03-23T04:25:15;12.70;99.90
30983;DHT22;17660;52.578;13.288;2023-03-23T04:27:43;12.70;99.90
30983;DHT22;17660;52.578;13.288;2023-03-23T04:30:10;12.70;99.90
30983;DHT22;17660;52.578;13.288;2023-03-23T04:32:36;12.70;99.90
30983;DHT22;17660;52.578;13.288;2023-03-23T04:35:06;12.70;99.90
30983;DHT22;17660;52.578;13.288;2023-03-23T04:37:32;12.60;99.90
30983;DHT22;17660;52.578;13.288;2023-03-23T04:39:57;12.50;99.90
30983;DHT22;17660;52.578;13.288;2023-03-23T04:42:30;12.50;99.90
30983;DHT22;17660;52.578;13.288;2023-03-23T04:44:58;12.50;99.90
30983;DHT22;17660;52.578;13.288;2023-03-23T04:47:24;12.50;99.90
30983;DHT22;17660;52.578;13.288;2023-03-23T04:49:50;12.50;99.90
30983;DHT22;17660;52.578;13.288;2023-03-23T04:52:17;12.50;99.90
30983;DHT22;17660;52.578;13.288;2023-03-23T04:54:43;12.50;99.90
30983;DHT22;17660;52.578;13.288;2023-03-23T04:57:08;12.50;99.90
30983;DHT22;17660;52.578;13.288;2023-03-23T04:59:34;12.50;99.90
30983;DHT22;17660;52.578;13.288;2023-03-23T05:01:59;12.50;99.90
30983;DHT22;17660;52.578;13.288;2023-03-23T05:04:25;12.50;99.90
30983;DHT22;17660;52.578;13.288;2023-03-23T05:06:51;12.50;99.90
30983;DHT22;17660;52.578;13.288;2023-03-23T05:09:16;12.40;99.90
30983;DHT22;17660;52.578;13.288;2023-03-23T05:11:42;12.40;99.90
30983;DHT22;17660;52.578;13.288;2023-03-23T05:14:08;12.30;99.90
30983;DHT22;17660;52.578;13.288;2023-03-23T05:16:35;12.20;99.90
30983;DHT22;17660;52.578;13.288;2023-03-23T05:19:02;12.10;99.90
30983;DHT22;17660;52.578;13.288;2023-03-23T05:21:27;12.10;99.90
30983;DHT22;17660;52.578;13.288;2023-03-23T05:23:53;12.00;99.90
30983;DHT22;17660;52.578;13.288;2023-03-23T05:26:20;12.10;99.90
30983;DHT22;17660;52.578;13.288;2023-03-23T05:28:46;12.10;99.90
30983;DHT22;17660;52.578;13.288;2023-03-23T05:31:13;12.20;99.90
30983;DHT22;17660;52.578;13.288;2023-03-23T05:33:39;12.10;99.90
30983;DHT22;17660;52.578;13.288;2023-03-23T05:36:04;12.00;99.90
30983;DHT22;17660;52.578;13.288;2023-03-23T05:38:32;12.00;99.90
30983;DHT22;17660;52.578;13.288;2023-03-23T05:40:58;12.00;99.90
30983;DHT22;17660;52.578;13.288;2023-03-23T05:43:26;11.90;99.90
30983;DHT22;17660;52.578;13.288;2023-03-23T05:45:52;11.90;99.90
30983;DHT22;17660;52.578;13.288;2023-03-23T05:48:17;11.90;99.90
30983;DHT22;17660;52.578;13.288;2023-03-23T05:50:43;11.90;99.90
30983;DHT22;17660;52.578;13.288;2023-03-23T05:53:08;11.90;99.90
30983;DHT22;17660;52.578;13.288;2023-03-23T05:55:35;11.90;99.90
30983;DHT22;17660;52.578;13.288;2023-03-23T05:58:01;11.90;99.90
30983;DHT22;17660;52.578;13.288;2023-03-23T06:00:26;11.80;99.90
30983;DHT22;17660;52.578;13.288;2023-03-23T06:02:55;11.80;99.90
30983;DHT22;17660;52.578;13.288;2023-03-23T06:05:22;11.80;99.90
30983;DHT22;17660;52.578;13.288;2023-03-23T06:07:49;11.80;99.90
30983;DHT22;17660;52.578;13.288;2023-03-23T06:10:14;11.70;99.90
30983;DHT22;17660;52.578;13.288;2023-03-23T06:12:40;11.70;99.90
30983;DHT22;17660;52.578;13.288;2023-03-23T06:15:06;11.70;99.90
30983;DHT22;17660;52.578;13.288;2023-03-23T06:17:33;11.70;99.90
30983;DHT22;17660;52.578;13.288;2023-03-23T06:19:58;11.60;99.90
30983;DHT22;17660;52.578;13.288;2023-03-23T06:22:25;11.60;99.90
30983;DHT22;17660;52.578;13.288;2023-03-23T06:24:50;11.60;99.90
30983;DHT22;17660;52.578;13.288;2023-03-23T06:27:16;11.60;99.90
30983;DHT22;17660;52.578;13.288;2023-03-23T06:29:42;11.60;99.90
30983;DHT22;17660;52.578;13.288;2023-03-23T06:32:09;11.60;99.90
30983;DHT22;17660;52.578;13.288;2023-03-23T06:34:35;11.60;99.90
30983;DHT22;17660;52.578;13.288;2023-03-23T06:37:01;11.60;99.90
30983;DHT22;17660;52.578;13.288;2023-03-23T06:39:27;11.60;99.90
30983;DHT22;17660;52.578;13.288;2023-03-23T06:41:52;11.60;99.90
30983;DHT22;17660;52.578;13.288;2023-03-23T06:44:18;11.60;99.90
30983;DHT22;17660;52.578;13.288;2023-03-23T06:46:44;11.60;99.90
30983;DHT22;17660;52.578;13.288;2023-03-23T06:49:09;11.70;99.90
30983;DHT22;17660;52.578;13.288;2023-03-23T06:51:35;11.70;99.90
30983;DHT22;17660;52.578;13.288;2023-03-23T06:54:01;11.70;99.90
30983;DHT22;17660;52.578;13.288;2023-03-23T06:56:27;11.80;99.90
30983;DHT22;17660;52.578;13.288;2023-03-23T06:58:53;11.70;99.90
30983;DHT22;17660;52.578;13.288;2023-03-23T07:01:19;11.70;99.90
30983;DHT22;17660;52.578;13.288;2023-03-23T07:03:45;11.70;99.90
30983;DHT22;17660;52.578;13.288;2023-03-23T07:06:11;11.70;99.90
30983;DHT22;17660;52.578;13.288;2023-03-23T07:08:36;11.70;99.90
30983;DHT22;17660;52.578;13.288;2023-03-23T07:11:02;11.60;99.90
30983;DHT22;17660;52.578;13.288;2023-03-23T07:13:28;11.60;99.90
30983;DHT22;17660;52.578;13.288;2023-03-23T07:15:53;11.60;99.90
30983;DHT22;17660;52.578;13.288;2023-03-23T07:18:20;11.70;99.90
30983;DHT22;17660;52.578;13.288;2023-03-23T07:20:52;11.70;99.90
30983;DHT22;17660;52.578;13.288;2023-03-23T07:23:18;11.70;99.90
30983;DHT22;17660;52.578;13.288;2023-03-23T07:25:44;11.80;99.90
30983;DHT22;17660;52.578;13.288;2023-03-23T07:28:11;11.80;99.90
30983;DHT22;17660;52.578;13.288;2023-03-23T07:30:37;11.80;99.90
30983;DHT22;17660;52.578;13.288;2023-03-23T07:33:06;11.80;99.90
30983;DHT22;17660;52.578;13.288;2023-03-23T07:35:32;11.80;99.90
30983;DHT22;17660;52.578;13.288;2023-03-23T07:37:58;11.80;99.90
30983;DHT22;17660;52.578;13.288;2023-03-23T07:40:24;11.80;99.90
30983;DHT22;17660;52.578;13.288;2023-03-23T07:42:54;11.80;99.90
30983;DHT22;17660;52.578;13.288;2023-03-23T07:45:20;11.90;99.90
30983;DHT22;17660;52.578;13.288;2023-03-23T07:47:46;11.90;99.90
30983;DHT22;17660;52.578;13.288;2023-03-23T07:50:12;12.00;99.90
30983;DHT22;17660;52.578;13.288;2023-03-23T07:52:39;12.00;99.90
30983;DHT22;17660;52.578;13.288;2023-03-23T07:55:05;12.10;99.90
30983;DHT22;17660;52.578;13.288;2023-03-23T07:57:31;12.30;99.90
30983;DHT22;17660;52.578;13.288;2023-03-23T07:59:57;12.30;99.90
30983;DHT22;17660;52.578;13.288;2023-03-23T08:02:23;12.30;99.90
30983;DHT22;17660;52.578;13.288;2023-03-23T08:04:49;12.40;99.90
30983;DHT22;17660;52.578;13.288;2023-03-23T08:07:16;12.40;99.90
30983;DHT22;17660;52.578;13.288;2023-03-23T08:09:42;12.40;99.90
30983;DHT22;17660;52.578;13.288;2023-03-23T08:12:08;12.50;99.90
30983;DHT22;17660;52.578;13.288;2023-03-23T08:14:33;12.60;99.90
30983;DHT22;17660;52.578;13.288;2023-03-23T08:16:59;12.60;99.90
30983;DHT22;17660;52.578;13.288;2023-03-23T08:19:25;12.50;99.90
30983;DHT22;17660;52.578;13.288;2023-03-23T08:21:51;12.50;99.90
30983;DHT22;17660;52.578;13.288;2023-03-23T08:24:17;12.40;99.90
30983;DHT22;17660;52.578;13.288;2023-03-23T08:26:44;12.50;99.90
30983;DHT22;17660;52.578;13.288;2023-03-23T08:29:09;12.40;99.90
30983;DHT22;17660;52.578;13.288;2023-03-23T08:31:35;12.40;99.90
30983;DHT22;17660;52.578;13.288;2023-03-23T08:34:02;12.40;99.90
30983;DHT22;17660;52.578;13.288;2023-03-23T08:36:31;12.50;99.90
30983;DHT22;17660;52.578;13.288;2023-03-23T08:38:57;12.50;99.90
30983;DHT22;17660;52.578;13.288;2023-03-23T08:41:23;12.60;99.90
30983;DHT22;17660;52.578;13.288;2023-03-23T08:43:49;12.60;99.90
30983;DHT22;17660;52.578;13.288;2023-03-23T08:46:15;12.70;99.90
30983;DHT22;17660;52.578;13.288;2023-03-23T08:48:42;12.60;99.90
30983;DHT22;17660;52.578;13.288;2023-03-23T08:51:09;12.70;99.90
30983;DHT22;17660;52.578;13.288;2023-03-23T08:53:36;12.70;99.90
30983;DHT22;17660;52.578;13.288;2023-03-23T08:56:03;12.80;99.90
30983;DHT22;17660;52.578;13.288;2023-03-23T08:58:29;12.90;99.90
30983;DHT22;17660;52.578;13.288;2023-03-23T09:00:54;13.00;99.90
30983;DHT22;17660;52.578;13.288;2023-03-23T09:03:20;13.10;99.90
30983;DHT22;17660;52.578;13.288;2023-03-23T09:05:46;13.20;99.90
30983;DHT22;17660;52.578;13.288;2023-03-23T09:08:11;13.20;99.90
30983;DHT22;17660;52.578;13.288;2023-03-23T09:10:37;13.20;99.90
30983;DHT22;17660;52.578;13.288;2023-03-23T09:13:04;13.10;99.90
30983;DHT22;17660;52.578;13.288;2023-03-23T09:15:30;13.00;99.90
30983;DHT22;17660;52.578;13.288;2023-03-23T09:17:56;13.00;99.90
30983;DHT22;17660;52.578;13.288;2023-03-23T09:20:23;13.10;99.90
30983;DHT22;17660;52.578;13.288;2023-03-23T09:22:50;13.30;99.90
30983;DHT22;17660;52.578;13.288;2023-03-23T09:25:17;13.30;99.90
30983;DHT22;17660;52.578;13.288;2023-03-23T09:27:46;13.60;99.90
30983;DHT22;17660;52.578;13.288;2023-03-23T09:30:14;13.80;99.90
30983;DHT22;17660;52.578;13.288;2023-03-23T09:32:40;14.40;99.90
30983;DHT22;17660;52.578;13.288;2023-03-23T09:35:08;14.60;99.90
30983;DHT22;17660;52.578;13.288;2023-03-23T09:37:37;14.90;99.90
30983;DHT22;17660;52.578;13.288;2023-03-23T09:40:05;15.20;99.90
30983;DHT22;17660;52.578;13.288;2023-03-23T09:42:37;15.80;99.90
30983;DHT22;17660;52.578;13.288;2023-03-23T09:50:21;16.20;99.90
30983;DHT22;17660;52.578;13.288;2023-03-23T09:52:56;16.30;99.90
30983;DHT22;17660;52.578;13.288;2023-03-23T09:55:22;16.30;99.90
30983;DHT22;17660;52.578;13.288;2023-03-23T10:00:22;15.90;99.90
30983;DHT22;17660;52.578;13.288;2023-03-23T10:05:39;15.00;99.90
30983;DHT22;17660;52.578;13.288;2023-03-23T10:08:09;14.80;99.90
30983;DHT22;17660;52.578;13.288;2023-03-23T10:10:37;14.70;99.90
30983;DHT22;17660;52.578;13.288;2023-03-23T10:13:07;14.70;99.90
30983;DHT22;17660;52.578;13.288;2023-03-23T10:15:36;14.70;99.90
30983;DHT22;17660;52.578;13.288;2023-03-23T10:18:14;14.80;99.90
30983;DHT22;17660;52.578;13.288;2023-03-23T10:25:48;14.80;99.90
30983;DHT22;17660;52.578;13.288;2023-03-23T10:28:19;15.20;99.90
30983;DHT22;17660;52.578;13.288;2023-03-23T10:30:51;15.50;99.90
30983;DHT22;17660;52.578;13.288;2023-03-23T10:36:06;16.10;99.90
30983;DHT22;17660;52.578;13.288;2023-03-23T10:41:01;16.50;99.90
30983;DHT22;17660;52.578;13.288;2023-03-23T10:43:30;16.40;99.90
30983;DHT22;17660;52.578;13.288;2023-03-23T10:46:10;16.30;99.90
30983;DHT22;17660;52.578;13.288;2023-03-23T10:48:37;16.20;99.90
30983;DHT22;17660;52.578;13.288;2023-03-23T10:51:04;16.00;99.90
30983;DHT22;17660;52.578;13.288;2023-03-23T10:53:39;16.00;99.90
30983;DHT22;17660;52.578;13.288;2023-03-23T10:58:51;15.80;99.90
30983;DHT22;17660;52.578;13.288;2023-03-23T11:01:18;15.50;99.90
30983;DHT22;17660;52.578;13.288;2023-03-23T11:03:45;15.30;99.90
30983;DHT22;17660;52.578;13.288;2023-03-23T11:06:20;15.20;99.90
30983;DHT22;17660;52.578;13.288;2023-03-23T11:08:48;15.20;99.90
30983;DHT22;17660;52.578;13.288;2023-03-23T11:11:30;15.20;99.90
30983;DHT22;17660;52.578;13.288;2023-03-23T11:14:18;15.20;99.90
30983;DHT22;17660;52.578;13.288;2023-03-23T11:16:53;15.30;99.90
30983;DHT22;17660;52.578;13.288;2023-03-23T11:19:31;15.30;99.90
30983;DHT22;17660;52.578;13.288;2023-03-23T11:24:31;15.10;99.90
30983;DHT22;17660;52.578;13.288;2023-03-23T11:26:57;15.40;99.90
30983;DHT22;17660;52.578;13.288;2023-03-23T11:29:26;15.90;99.90
30983;DHT22;17660;52.578;13.288;2023-03-23T11:34:35;16.10;99.90
30983;DHT22;17660;52.578;13.288;2023-03-23T11:42:20;16.50;99.10
30983;DHT22;17660;52.578;13.288;2023-03-23T11:44:46;16.30;99.20
30983;DHT22;17660;52.578;13.288;2023-03-23T11:55:21;16.20;99.20
30983;DHT22;17660;52.578;13.288;2023-03-23T11:57:47;16.20;99.00
30983;DHT22;17660;52.578;13.288;2023-03-23T12:00:15;16.10;98.90
30983;DHT22;17660;52.578;13.288;2023-03-23T12:10:38;16.30;99.00
30983;DHT22;17660;52.578;13.288;2023-03-23T12:24:13;16.10;99.10
30983;DHT22;17660;52.578;13.288;2023-03-23T12:31:10;16.20;98.60
30983;DHT22;17660;52.578;13.288;2023-03-23T12:36:29;16.20;98.60
30983;DHT22;17660;52.578;13.288;2023-03-23T12:44:04;16.10;98.50
30983;DHT22;17660;52.578;13.288;2023-03-23T12:51:57;16.10;98.30
30983;DHT22;17660;52.578;13.288;2023-03-23T12:57:18;17.30;97.20
30983;DHT22;17660;52.578;13.288;2023-03-23T12:59:49;19.70;94.50
30983;DHT22;17660;52.578;13.288;2023-03-23T13:04:44;20.50;92.00
30983;DHT22;17660;52.578;13.288;2023-03-23T13:07:12;21.50;91.10
30983;DHT22;17660;52.578;13.288;2023-03-23T13:12:09;24.30;83.80
30983;DHT22;17660;52.578;13.288;2023-03-23T13:22:37;24.80;74.60
30983;DHT22;17660;52.578;13.288;2023-03-23T13:25:07;27.10;69.60
30983;DHT22;17660;52.578;13.288;2023-03-23T13:27:34;29.20;64.10
30983;DHT22;17660;52.578;13.288;2023-03-23T13:30:00;28.40;62.30
30983;DHT22;17660;52.578;13.288;2023-03-23T13:32:35;29.00;60.30
30983;DHT22;17660;52.578;13.288;2023-03-23T13:35:05;29.70;58.80
30983;DHT22;17660;52.578;13.288;2023-03-23T13:37:40;28.10;59.30
30983;DHT22;17660;52.578;13.288;2023-03-23T13:42:48;27.50;59.70
30983;DHT22;17660;52.578;13.288;2023-03-23T13:47:43;29.70;55.10
30983;DHT22;17660;52.578;13.288;2023-03-23T13:50:29;29.80;55.00
30983;DHT22;17660;52.578;13.288;2023-03-23T13:52:59;29.50;53.80
30983;DHT22;17660;52.578;13.288;2023-03-23T13:57:58;26.70;56.20
30983;DHT22;17660;52.578;13.288;2023-03-23T14:08:36;24.70;60.70
30983;DHT22;17660;52.578;13.288;2023-03-23T14:11:09;26.60;57.50
30983;DHT22;17660;52.578;13.288;2023-03-23T14:13:50;24.30;60.10
30983;DHT22;17660;52.578;13.288;2023-03-23T14:18:48;20.90;66.30
30983;DHT22;17660;52.578;13.288;2023-03-23T14:21:16;20.00;68.50
30983;DHT22;17660;52.578;13.288;2023-03-23T14:23:42;19.30;69.60
30983;DHT22;17660;52.578;13.288;2023-03-23T14:26:26;18.80;71.40
30983;DHT22;17660;52.578;13.288;2023-03-23T14:28:52;18.50;71.80
30983;DHT22;17660;52.578;13.288;2023-03-23T14:33:44;17.90;74.00
30983;DHT22;17660;52.578;13.288;2023-03-23T14:36:10;17.70;75.20
30983;DHT22;17660;52.578;13.288;2023-03-23T14:38:35;18.30;75.20
30983;DHT22;17660;52.578;13.288;2023-03-23T14:41:02;18.50;74.90
30983;DHT22;17660;52.578;13.288;2023-03-23T14:43:28;18.40;74.50
30983;DHT22;17660;52.578;13.288;2023-03-23T14:45:55;18.20;74.50
30983;DHT22;17660;52.578;13.288;2023-03-23T14:48:21;18.20;75.50
30983;DHT22;17660;52.578;13.288;2023-03-23T14:51:00;19.00;75.90
30983;DHT22;17660;52.578;13.288;2023-03-23T14:55:59;19.10;74.10
30983;DHT22;17660;52.578;13.288;2023-03-23T14:58:25;19.10;73.40
30983;DHT22;17660;52.578;13.288;2023-03-23T15:01:05;18.90;74.60
30983;DHT22;17660;52.578;13.288;2023-03-23T15:03:34;18.70;74.90
30983;DHT22;17660;52.578;13.288;2023-03-23T15:06:01;18.90;75.10
30983;DHT22;17660;52.578;13.288;2023-03-23T15:08:29;21.10;69.40
30983;DHT22;17660;52.578;13.288;2023-03-23T15:11:41;23.40;64.20
30983;DHT22;17660;52.578;13.288;2023-03-23T15:13:49;24.60;62.10
30983;DHT22;17660;52.578;13.288;2023-03-23T15:16:20;24.90;60.50
30983;DHT22;17660;52.578;13.288;2023-03-23T15:18:59;24.50;60.80
30983;DHT22;17660;52.578;13.288;2023-03-23T15:21:38;23.60;61.80
30983;DHT22;17660;52.578;13.288;2023-03-23T15:24:23;23.00;62.90
30983;DHT22;17660;52.578;13.288;2023-03-23T15:26:50;23.00;62.60
30983;DHT22;17660;52.578;13.288;2023-03-23T15:29:19;22.40;63.30
30983;DHT22;17660;52.578;13.288;2023-03-23T15:31:48;21.90;64.10
30983;DHT22;17660;52.578;13.288;2023-03-23T15:34:16;21.60;65.20
30983;DHT22;17660;52.578;13.288;2023-03-23T15:36:43;21.40;65.00
30983;DHT22;17660;52.578;13.288;2023-03-23T15:39:12;21.30;65.90
30983;DHT22;17660;52.578;13.288;2023-03-23T15:41:45;20.70;67.40
30983;DHT22;17660;52.578;13.288;2023-03-23T15:44:12;19.80;69.80
30983;DHT22;17660;52.578;13.288;2023-03-23T15:46:51;19.10;71.00
30983;DHT22;17660;52.578;13.288;2023-03-23T15:49:17;18.50;72.30
30983;DHT22;17660;52.578;13.288;2023-03-23T15:51:43;18.10;74.10
30983;DHT22;17660;52.578;13.288;2023-03-23T15:54:11;17.80;74.70
30983;DHT22;17660;52.578;13.288;2023-03-23T15:56:37;17.60;76.00
30983;DHT22;17660;52.578;13.288;2023-03-23T15:59:03;17.40;76.80
30983;DHT22;17660;52.578;13.288;2023-03-23T16:01:30;17.30;77.20
30983;DHT22;17660;52.578;13.288;2023-03-23T16:04:11;17.10;77.50
30983;DHT22;17660;52.578;13.288;2023-03-23T16:06:38;17.10;78.60
30983;DHT22;17660;52.578;13.288;2023-03-23T16:09:05;17.10;78.60
30983;DHT22;17660;52.578;13.288;2023-03-23T16:11:33;17.10;79.00
30983;DHT22;17660;52.578;13.288;2023-03-23T16:13:59;17.00;78.10
30983;DHT22;17660;52.578;13.288;2023-03-23T16:18:53;16.90;79.30
30983;DHT22;17660;52.578;13.288;2023-03-23T16:21:20;16.90;79.60
30983;DHT22;17660;52.578;13.288;2023-03-23T16:23:47;16.80;80.70
30983;DHT22;17660;52.578;13.288;2023-03-23T16:26:14;16.60;83.70
30983;DHT22;17660;52.578;13.288;2023-03-23T16:28:41;16.50;86.00
30983;DHT22;17660;52.578;13.288;2023-03-23T16:31:08;16.50;86.90
30983;DHT22;17660;52.578;13.288;2023-03-23T16:33:35;16.60;87.00
30983;DHT22;17660;52.578;13.288;2023-03-23T16:36:02;16.70;87.50
30983;DHT22;17660;52.578;13.288;2023-03-23T16:38:29;16.60;87.90
30983;DHT22;17660;52.578;13.288;2023-03-23T16:40:56;16.50;88.50
30983;DHT22;17660;52.578;13.288;2023-03-23T16:43:22;16.30;89.90
30983;DHT22;17660;52.578;13.288;2023-03-23T16:45:49;16.10;90.40
30983;DHT22;17660;52.578;13.288;2023-03-23T16:48:15;16.00;90.90
30983;DHT22;17660;52.578;13.288;2023-03-23T16:50:43;15.90;91.50
30983;DHT22;17660;52.578;13.288;2023-03-23T16:53:10;15.70;92.10
30983;DHT22;17660;52.578;13.288;2023-03-23T16:55:37;15.70;92.70
30983;DHT22;17660;52.578;13.288;2023-03-23T16:58:04;15.50;93.30
30983;DHT22;17660;52.578;13.288;2023-03-23T17:00:43;15.40;94.00
30983;DHT22;17660;52.578;13.288;2023-03-23T17:03:10;15.40;94.50
30983;DHT22;17660;52.578;13.288;2023-03-23T17:05:38;15.30;94.90
30983;DHT22;17660;52.578;13.288;2023-03-23T17:08:05;15.20;95.50
30983;DHT22;17660;52.578;13.288;2023-03-23T17:10:32;15.10;95.90
30983;DHT22;17660;52.578;13.288;2023-03-23T17:12:59;15.00;96.40
30983;DHT22;17660;52.578;13.288;2023-03-23T17:15:27;15.00;96.90
30983;DHT22;17660;52.578;13.288;2023-03-23T17:17:53;14.90;97.40
30983;DHT22;17660;52.578;13.288;2023-03-23T17:20:21;14.80;97.60
30983;DHT22;17660;52.578;13.288;2023-03-23T17:22:48;14.70;98.10
30983;DHT22;17660;52.578;13.288;2023-03-23T17:25:14;14.60;98.50
30983;DHT22;17660;52.578;13.288;2023-03-23T17:27:41;14.60;98.30
30983;DHT22;17660;52.578;13.288;2023-03-23T17:30:08;14.60;98.40
30983;DHT22;17660;52.578;13.288;2023-03-23T17:32:36;14.60;98.80
30983;DHT22;17660;52.578;13.288;2023-03-23T17:35:04;14.60;99.10
30983;DHT22;17660;52.578;13.288;2023-03-23T17:37:31;14.50;98.90
30983;DHT22;17660;52.578;13.288;2023-03-23T17:39:58;14.40;99.20
30983;DHT22;17660;52.578;13.288;2023-03-23T17:42:24;14.30;99.30
30983;DHT22;17660;52.578;13.288;2023-03-23T17:44:51;14.10;99.90
30983;DHT22;17660;52.578;13.288;2023-03-23T17:47:18;14.00;99.90
30983;DHT22;17660;52.578;13.288;2023-03-23T17:49:44;14.00;99.90
30983;DHT22;17660;52.578;13.288;2023-03-23T17:52:11;13.90;99.90